sensor_id;sensor_type;location;lat;lon;timestamp;P1;durP1;ratioP1;P2;durP2;ratioP2
25824;SDS011;13658;44.534;18.694;2023-03-01T15:31:42;62.72;;;28.48;;
25824;SDS011;13658;44.534;18.694;2023-03-01T15:36:41;84.38;;;42.25;;
25824;SDS011;13658;44.534;18.694;2023-03-01T15:42:05;218.50;;;90.00;;
25824;SDS011;13658;44.534;18.694;2023-03-01T15:44:37;230.30;;;94.20;;
25824;SDS011;13658;44.534;18.694;2023-03-01T15:50:14;218.77;;;90.45;;
25824;SDS011;13658;44.534;18.694;2023-03-01T15:52:49;241.90;;;92.70;;
25824;SDS011;13658;44.534;18.694;2023-03-01T15:55:24;237.52;;;92.90;;
25824;SDS011;13658;44.534;18.694;2023-03-01T16:00:41;261.63;;;101.43;;
25824;SDS011;13658;44.534;18.694;2023-03-01T16:03:08;266.40;;;98.32;;
25824;SDS011;13658;44.534;18.694;2023-03-01T16:05:37;265.05;;;96.38;;
25824;SDS011;13658;44.534;18.694;2023-03-01T16:08:04;260.20;;;99.72;;
25824;SDS011;13658;44.534;18.694;2023-03-01T16:10:31;266.95;;;98.95;;
25824;SDS011;13658;44.534;18.694;2023-03-01T16:12:58;259.38;;;98.80;;
25824;SDS011;13658;44.534;18.694;2023-03-01T16:15:32;256.58;;;98.30;;
25824;SDS011;13658;44.534;18.694;2023-03-01T16:18:02;268.45;;;103.55;;
25824;SDS011;13658;44.534;18.694;2023-03-01T16:20:28;266.92;;;102.82;;
25824;SDS011;13658;44.534;18.694;2023-03-01T16:22:55;264.75;;;105.35;;
25824;SDS011;13658;44.534;18.694;2023-03-01T16:25:25;271.63;;;103.90;;
25824;SDS011;13658;44.534;18.694;2023-03-01T16:27:51;267.05;;;104.40;;
25824;SDS011;13658;44.534;18.694;2023-03-01T16:30:20;275.35;;;105.70;;
25824;SDS011;13658;44.534;18.694;2023-03-01T16:32:48;274.50;;;102.47;;
25824;SDS011;13658;44.534;18.694;2023-03-01T16:35:17;264.48;;;104.63;;
25824;SDS011;13658;44.534;18.694;2023-03-01T16:37:44;264.08;;;106.68;;
25824;SDS011;13658;44.534;18.694;2023-03-01T16:40:16;264.58;;;106.72;;
25824;SDS011;13658;44.534;18.694;2023-03-01T16:42:44;258.83;;;111.30;;
25824;SDS011;13658;44.534;18.694;2023-03-01T16:45:10;261.23;;;113.10;;
25824;SDS011;13658;44.534;18.694;2023-03-01T16:47:36;258.33;;;113.90;;
25824;SDS011;13658;44.534;18.694;2023-03-01T16:50:02;260.35;;;112.90;;
25824;SDS011;13658;44.534;18.694;2023-03-01T16:52:28;253.45;;;114.82;;
25824;SDS011;13658;44.534;18.694;2023-03-01T16:54:54;222.98;;;102.60;;
25824;SDS011;13658;44.534;18.694;2023-03-01T16:57:20;221.48;;;101.68;;
25824;SDS011;13658;44.534;18.694;2023-03-01T16:59:46;241.38;;;102.85;;
25824;SDS011;13658;44.534;18.694;2023-03-01T17:02:12;226.40;;;99.65;;
25824;SDS011;13658;44.534;18.694;2023-03-01T17:04:40;249.68;;;105.32;;
25824;SDS011;13658;44.534;18.694;2023-03-01T17:07:06;308.30;;;134.25;;
25824;SDS011;13658;44.534;18.694;2023-03-01T17:09:36;308.15;;;134.63;;
25824;SDS011;13658;44.534;18.694;2023-03-01T17:12:05;307.45;;;135.73;;
25824;SDS011;13658;44.534;18.694;2023-03-01T17:14:31;316.92;;;141.48;;
25824;SDS011;13658;44.534;18.694;2023-03-01T17:16:57;304.27;;;134.80;;
25824;SDS011;13658;44.534;18.694;2023-03-01T17:19:23;303.20;;;131.00;;
25824;SDS011;13658;44.534;18.694;2023-03-01T17:21:49;283.63;;;121.85;;
25824;SDS011;13658;44.534;18.694;2023-03-01T17:24:15;314.90;;;135.98;;
25824;SDS011;13658;44.534;18.694;2023-03-01T17:26:41;296.70;;;135.10;;
25824;SDS011;13658;44.534;18.694;2023-03-01T17:29:08;291.73;;;129.38;;
25824;SDS011;13658;44.534;18.694;2023-03-01T17:31:34;265.42;;;121.90;;
25824;SDS011;13658;44.534;18.694;2023-03-01T17:34:00;282.92;;;126.38;;
25824;SDS011;13658;44.534;18.694;2023-03-01T17:36:26;236.20;;;106.63;;
25824;SDS011;13658;44.534;18.694;2023-03-01T17:38:52;188.55;;;82.45;;
25824;SDS011;13658;44.534;18.694;2023-03-01T17:41:18;179.07;;;76.72;;
25824;SDS011;13658;44.534;18.694;2023-03-01T17:43:46;168.60;;;73.35;;
25824;SDS011;13658;44.534;18.694;2023-03-01T17:46:12;170.43;;;70.57;;
25824;SDS011;13658;44.534;18.694;2023-03-01T17:48:38;160.73;;;66.63;;
25824;SDS011;13658;44.534;18.694;2023-03-01T17:51:08;157.73;;;64.50;;
25824;SDS011;13658;44.534;18.694;2023-03-01T17:53:36;168.50;;;66.10;;
25824;SDS011;13658;44.534;18.694;2023-03-01T17:56:03;171.85;;;74.25;;
25824;SDS011;13658;44.534;18.694;2023-03-01T17:58:31;226.55;;;97.47;;
25824;SDS011;13658;44.534;18.694;2023-03-01T18:01:10;255.40;;;107.80;;
25824;SDS011;13658;44.534;18.694;2023-03-01T18:03:43;254.35;;;110.63;;
25824;SDS011;13658;44.534;18.694;2023-03-01T18:06:14;256.10;;;105.30;;
25824;SDS011;13658;44.534;18.694;2023-03-01T18:08:40;254.80;;;106.68;;
25824;SDS011;13658;44.534;18.694;2023-03-01T18:11:06;250.13;;;101.45;;
25824;SDS011;13658;44.534;18.694;2023-03-01T18:13:34;263.88;;;103.85;;
25824;SDS011;13658;44.534;18.694;2023-03-01T18:16:03;270.98;;;101.85;;
25824;SDS011;13658;44.534;18.694;2023-03-01T18:18:33;267.13;;;102.93;;
25824;SDS011;13658;44.534;18.694;2023-03-01T18:21:00;269.58;;;106.05;;
25824;SDS011;13658;44.534;18.694;2023-03-01T18:23:27;262.42;;;100.38;;
25824;SDS011;13658;44.534;18.694;2023-03-01T18:26:00;280.08;;;106.78;;
25824;SDS011;13658;44.534;18.694;2023-03-01T18:28:28;266.05;;;102.55;;
25824;SDS011;13658;44.534;18.694;2023-03-01T18:30:59;284.77;;;105.45;;
25824;SDS011;13658;44.534;18.694;2023-03-01T18:33:32;284.58;;;104.40;;
25824;SDS011;13658;44.534;18.694;2023-03-01T18:35:59;268.13;;;101.43;;
25824;SDS011;13658;44.534;18.694;2023-03-01T18:38:25;269.83;;;101.05;;
25824;SDS011;13658;44.534;18.694;2023-03-01T18:40:52;281.67;;;99.78;;
25824;SDS011;13658;44.534;18.694;2023-03-01T18:43:20;272.80;;;102.43;;
25824;SDS011;13658;44.534;18.694;2023-03-01T18:45:46;256.98;;;100.30;;
25824;SDS011;13658;44.534;18.694;2023-03-01T18:48:13;264.92;;;100.50;;
25824;SDS011;13658;44.534;18.694;2023-03-01T18:50:40;257.92;;;97.38;;
25824;SDS011;13658;44.534;18.694;2023-03-01T18:53:07;284.48;;;105.07;;
25824;SDS011;13658;44.534;18.694;2023-03-01T18:55:37;278.27;;;100.95;;
25824;SDS011;13658;44.534;18.694;2023-03-01T18:58:03;270.13;;;102.60;;
25824;SDS011;13658;44.534;18.694;2023-03-01T19:00:30;262.50;;;102.53;;
25824;SDS011;13658;44.534;18.694;2023-03-01T19:02:57;260.52;;;103.53;;
25824;SDS011;13658;44.534;18.694;2023-03-01T19:05:26;266.63;;;103.03;;
25824;SDS011;13658;44.534;18.694;2023-03-01T19:07:53;261.23;;;101.65;;
25824;SDS011;13658;44.534;18.694;2023-03-01T19:10:19;272.13;;;103.38;;
25824;SDS011;13658;44.534;18.694;2023-03-01T19:12:45;266.92;;;103.57;;
25824;SDS011;13658;44.534;18.694;2023-03-01T19:15:11;262.00;;;101.63;;
25824;SDS011;13658;44.534;18.694;2023-03-01T19:17:40;295.35;;;129.10;;
25824;SDS011;13658;44.534;18.694;2023-03-01T19:20:07;318.02;;;144.63;;
25824;SDS011;13658;44.534;18.694;2023-03-01T19:22:33;305.75;;;144.00;;
25824;SDS011;13658;44.534;18.694;2023-03-01T19:24:59;326.25;;;147.35;;
25824;SDS011;13658;44.534;18.694;2023-03-01T19:27:25;302.77;;;138.75;;
25824;SDS011;13658;44.534;18.694;2023-03-01T19:29:51;280.98;;;130.48;;
25824;SDS011;13658;44.534;18.694;2023-03-01T19:32:17;272.50;;;123.53;;
25824;SDS011;13658;44.534;18.694;2023-03-01T19:34:43;268.67;;;120.95;;
25824;SDS011;13658;44.534;18.694;2023-03-01T19:37:10;285.40;;;126.82;;
25824;SDS011;13658;44.534;18.694;2023-03-01T19:39:37;277.40;;;126.03;;
25824;SDS011;13658;44.534;18.694;2023-03-01T19:42:03;290.92;;;125.30;;
25824;SDS011;13658;44.534;18.694;2023-03-01T19:44:29;289.27;;;128.65;;
25824;SDS011;13658;44.534;18.694;2023-03-01T19:46:55;285.63;;;127.38;;
25824;SDS011;13658;44.534;18.694;2023-03-01T19:49:22;288.35;;;125.10;;
25824;SDS011;13658;44.534;18.694;2023-03-01T19:51:49;315.80;;;127.30;;
25824;SDS011;13658;44.534;18.694;2023-03-01T19:54:14;260.50;;;112.05;;
25824;SDS011;13658;44.534;18.694;2023-03-01T19:56:44;261.45;;;110.78;;
25824;SDS011;13658;44.534;18.694;2023-03-01T19:59:11;289.92;;;121.75;;
25824;SDS011;13658;44.534;18.694;2023-03-01T20:01:38;307.83;;;132.20;;
25824;SDS011;13658;44.534;18.694;2023-03-01T20:04:07;288.67;;;123.13;;
25824;SDS011;13658;44.534;18.694;2023-03-01T20:06:34;281.13;;;121.60;;
25824;SDS011;13658;44.534;18.694;2023-03-01T20:09:01;283.23;;;116.40;;
25824;SDS011;13658;44.534;18.694;2023-03-01T20:11:28;282.83;;;122.18;;
25824;SDS011;13658;44.534;18.694;2023-03-01T20:13:55;292.50;;;122.13;;
25824;SDS011;13658;44.534;18.694;2023-03-01T20:16:22;336.42;;;144.95;;
25824;SDS011;13658;44.534;18.694;2023-03-01T20:18:48;355.88;;;153.15;;
25824;SDS011;13658;44.534;18.694;2023-03-01T20:21:14;375.40;;;161.48;;
25824;SDS011;13658;44.534;18.694;2023-03-01T20:23:43;371.35;;;164.27;;
25824;SDS011;13658;44.534;18.694;2023-03-01T20:26:09;361.85;;;162.02;;
25824;SDS011;13658;44.534;18.694;2023-03-01T20:28:43;362.55;;;165.82;;
25824;SDS011;13658;44.534;18.694;2023-03-01T20:31:11;399.58;;;180.55;;
25824;SDS011;13658;44.534;18.694;2023-03-01T20:33:39;399.25;;;179.65;;
25824;SDS011;13658;44.534;18.694;2023-03-01T20:36:07;408.80;;;188.35;;
25824;SDS011;13658;44.534;18.694;2023-03-01T20:38:34;417.10;;;196.45;;
25824;SDS011;13658;44.534;18.694;2023-03-01T20:41:05;432.90;;;204.25;;
25824;SDS011;13658;44.534;18.694;2023-03-01T20:43:36;411.73;;;200.10;;
25824;SDS011;13658;44.534;18.694;2023-03-01T20:46:03;416.73;;;204.50;;
25824;SDS011;13658;44.534;18.694;2023-03-01T20:48:35;398.90;;;184.57;;
25824;SDS011;13658;44.534;18.694;2023-03-01T20:51:05;399.52;;;192.68;;
25824;SDS011;13658;44.534;18.694;2023-03-01T20:53:32;421.92;;;201.55;;
25824;SDS011;13658;44.534;18.694;2023-03-01T20:56:02;413.00;;;192.75;;
25824;SDS011;13658;44.534;18.694;2023-03-01T20:58:28;409.15;;;195.07;;
25824;SDS011;13658;44.534;18.694;2023-03-01T21:00:58;374.80;;;176.23;;
25824;SDS011;13658;44.534;18.694;2023-03-01T21:03:24;404.05;;;187.52;;
25824;SDS011;13658;44.534;18.694;2023-03-01T21:05:53;403.15;;;189.02;;
25824;SDS011;13658;44.534;18.694;2023-03-01T21:08:20;401.65;;;186.48;;
25824;SDS011;13658;44.534;18.694;2023-03-01T21:10:50;402.15;;;192.77;;
25824;SDS011;13658;44.534;18.694;2023-03-01T21:13:17;355.95;;;167.45;;
25824;SDS011;13658;44.534;18.694;2023-03-01T21:15:53;329.27;;;159.05;;
25824;SDS011;13658;44.534;18.694;2023-03-01T21:18:21;372.02;;;170.07;;
25824;SDS011;13658;44.534;18.694;2023-03-01T21:20:47;407.75;;;192.85;;
25824;SDS011;13658;44.534;18.694;2023-03-01T21:23:13;393.30;;;183.93;;
25824;SDS011;13658;44.534;18.694;2023-03-01T21:25:40;309.33;;;149.75;;
25824;SDS011;13658;44.534;18.694;2023-03-01T21:28:06;254.70;;;122.18;;
25824;SDS011;13658;44.534;18.694;2023-03-01T21:30:33;277.60;;;128.50;;
25824;SDS011;13658;44.534;18.694;2023-03-01T21:32:59;263.77;;;127.30;;
25824;SDS011;13658;44.534;18.694;2023-03-01T21:35:25;310.52;;;149.02;;
25824;SDS011;13658;44.534;18.694;2023-03-01T21:37:51;336.70;;;163.85;;
25824;SDS011;13658;44.534;18.694;2023-03-01T21:40:16;393.52;;;177.63;;
25824;SDS011;13658;44.534;18.694;2023-03-01T21:42:42;405.08;;;177.32;;
25824;SDS011;13658;44.534;18.694;2023-03-01T21:45:09;413.80;;;190.35;;
25824;SDS011;13658;44.534;18.694;2023-03-01T21:47:35;388.60;;;181.23;;
25824;SDS011;13658;44.534;18.694;2023-03-01T21:50:01;374.40;;;181.75;;
25824;SDS011;13658;44.534;18.694;2023-03-01T21:52:26;399.65;;;184.93;;
25824;SDS011;13658;44.534;18.694;2023-03-01T21:54:52;367.30;;;172.43;;
25824;SDS011;13658;44.534;18.694;2023-03-01T21:57:19;361.25;;;166.48;;
25824;SDS011;13658;44.534;18.694;2023-03-01T21:59:45;325.33;;;151.93;;
25824;SDS011;13658;44.534;18.694;2023-03-01T22:02:11;334.63;;;154.27;;
25824;SDS011;13658;44.534;18.694;2023-03-01T22:04:41;334.73;;;156.85;;
25824;SDS011;13658;44.534;18.694;2023-03-01T22:07:07;362.38;;;169.48;;
25824;SDS011;13658;44.534;18.694;2023-03-01T22:09:32;411.55;;;197.38;;
25824;SDS011;13658;44.534;18.694;2023-03-01T22:12:00;399.45;;;194.68;;
25824;SDS011;13658;44.534;18.694;2023-03-01T22:14:27;373.65;;;174.93;;
25824;SDS011;13658;44.534;18.694;2023-03-01T22:16:54;366.08;;;170.80;;
25824;SDS011;13658;44.534;18.694;2023-03-01T22:19:20;366.42;;;171.75;;
25824;SDS011;13658;44.534;18.694;2023-03-01T22:21:48;365.25;;;169.93;;
25824;SDS011;13658;44.534;18.694;2023-03-01T22:24:20;383.00;;;179.10;;
25824;SDS011;13658;44.534;18.694;2023-03-01T22:26:48;368.92;;;175.93;;
25824;SDS011;13658;44.534;18.694;2023-03-01T22:29:17;370.00;;;176.77;;
25824;SDS011;13658;44.534;18.694;2023-03-01T22:31:50;391.73;;;181.00;;
25824;SDS011;13658;44.534;18.694;2023-03-01T22:34:16;387.48;;;183.27;;
25824;SDS011;13658;44.534;18.694;2023-03-01T22:36:43;414.90;;;199.57;;
25824;SDS011;13658;44.534;18.694;2023-03-01T22:39:09;399.20;;;192.50;;
25824;SDS011;13658;44.534;18.694;2023-03-01T22:41:38;434.80;;;199.82;;
25824;SDS011;13658;44.534;18.694;2023-03-01T22:44:08;418.52;;;197.93;;
25824;SDS011;13658;44.534;18.694;2023-03-01T22:46:35;448.42;;;211.30;;
25824;SDS011;13658;44.534;18.694;2023-03-01T22:49:02;451.27;;;215.88;;
25824;SDS011;13658;44.534;18.694;2023-03-01T22:51:30;437.90;;;212.75;;
25824;SDS011;13658;44.534;18.694;2023-03-01T22:53:58;390.05;;;190.20;;
25824;SDS011;13658;44.534;18.694;2023-03-01T22:56:26;410.17;;;194.10;;
25824;SDS011;13658;44.534;18.694;2023-03-01T22:58:57;442.20;;;205.60;;
25824;SDS011;13658;44.534;18.694;2023-03-01T23:01:25;463.40;;;222.50;;
25824;SDS011;13658;44.534;18.694;2023-03-01T23:03:53;452.13;;;227.77;;
25824;SDS011;13658;44.534;18.694;2023-03-01T23:06:20;453.38;;;219.43;;
25824;SDS011;13658;44.534;18.694;2023-03-01T23:08:51;446.05;;;220.77;;
25824;SDS011;13658;44.534;18.694;2023-03-01T23:11:19;461.20;;;225.20;;
25824;SDS011;13658;44.534;18.694;2023-03-01T23:13:46;456.98;;;220.85;;
25824;SDS011;13658;44.534;18.694;2023-03-01T23:16:12;431.52;;;213.20;;
25824;SDS011;13658;44.534;18.694;2023-03-01T23:18:39;427.17;;;200.05;;
25824;SDS011;13658;44.534;18.694;2023-03-01T23:21:16;404.98;;;201.90;;
25824;SDS011;13658;44.534;18.694;2023-03-01T23:23:43;382.20;;;189.07;;
25824;SDS011;13658;44.534;18.694;2023-03-01T23:26:11;469.13;;;228.52;;
25824;SDS011;13658;44.534;18.694;2023-03-01T23:28:37;442.23;;;215.32;;
25824;SDS011;13658;44.534;18.694;2023-03-01T23:31:07;447.92;;;222.98;;
25824;SDS011;13658;44.534;18.694;2023-03-01T23:33:35;471.80;;;229.75;;
25824;SDS011;13658;44.534;18.694;2023-03-01T23:36:21;488.00;;;229.68;;
25824;SDS011;13658;44.534;18.694;2023-03-01T23:38:55;468.60;;;232.25;;
25824;SDS011;13658;44.534;18.694;2023-03-01T23:41:26;461.65;;;218.63;;
25824;SDS011;13658;44.534;18.694;2023-03-01T23:43:57;461.08;;;220.25;;
25824;SDS011;13658;44.534;18.694;2023-03-01T23:46:26;464.52;;;214.32;;
25824;SDS011;13658;44.534;18.694;2023-03-01T23:48:54;464.33;;;212.98;;
25824;SDS011;13658;44.534;18.694;2023-03-01T23:51:20;464.65;;;212.48;;
25824;SDS011;13658;44.534;18.694;2023-03-01T23:53:48;441.88;;;205.65;;
25824;SDS011;13658;44.534;18.694;2023-03-01T23:56:23;460.65;;;206.18;;
25824;SDS011;13658;44.534;18.694;2023-03-01T23:58:57;434.00;;;204.02;;
